Forside
METAR-TAF:

METAR-TAF

Lufthavne :

Teheran, Iran

Breddekreds: 35-41N, længdekreds: 051-21E, højde: 1204 m

Aktuelle vejr

Denne rapport blev lavet for 48 minutter siden, kl. 12:00 UTC
Vind 14 kt fra vest
Temperatur 10°C
Fugtighed 23%
Tryk 1015 hPa
Sigt 10 km eller mere
Nogle få skyer i en højde af 3500 ft

METAR: OIII 221200Z 27014KT 9999 FEW035 10/M10 Q1014 A2996 NOSIG

Tid: 16:18 (12:48 UTC)

Vejrudsigter

Denne rapport blev lavet for 1 time og 48 minutter siden, kl. 11:00 UTC
Foreløbig gælder fra 22 på 12 UTC til 23 på 18 UTC
Vind 12 kt fra sydvest
Sigt: 8000 m
Nogle få skyer i en højde af 10000 ft
ændring
fra 22 på 22 UTC til 22 på 24 UTC
Sigt: 4000 m
tåge/dis
Sandsynlighed 40%
fra 23 på 03 UTC til 23 på 05 UTC
Sigt: 2000 m
tåge/dis
ændring
fra 23 på 07 UTC til 23 på 09 UTC
Sigt: 6000 m

TAF: OIII 221100Z 2212/2318 23012KT 8000 FEW100 BECMG 2222/2224 4000 HZ PROB40 2303/2305 2000 HZ BECMG 2307/2309 6000 NSC

Vejrobservationer og prognoser fra mere end 4000 lufthavne (METAR og TAF).

De gule og røde prikker repræsenterer de meteorologiske stationer.

Flyt musen over at se navnet på stationen.

Så klik over at se vejr observationer og prognoser.

At skifte det kort: Klik på de grønne knapper med et sort kors for at zoome ind; på den grønne knap med en bindestreg for at zoome ud; eller på de grønne pile for tilstødende kort.


METAR-TAF: